Kotor — J8B5064 — position and weather

sailwx.info

Track history (hours):
 
Tides and Currents Weather Stations Pressure Air Temp Water Temp Dewpoint Dewpoint Depression Visibility Wind Speed Wind Dir Waves Ship Positions

Kotor

Last reported at 2017-Oct-17 06:01 UTC. Time now 2017-Oct-17 08:16 UTC.
Position N 40°49' E 028°58'.

Length 180 m; draft 6.4 m.

Type: Cargo ship. MMSI: 375074000.

Date/timePositionNaut miles runAvg speedWind from/ knotsBaromVisibWave heightAir tempDewpointWater temp
2017-Oct-17 06:01N 40°49' E 028°58'0 0.0
2017-Oct-17 06:00N 40°49' E 028°58'0 0.4
2017-Oct-17 05:29N 40°50' E 028°58'2 3.2
2017-Oct-17 04:58N 40°48' E 028°57'1 1.1
2017-Oct-17 04:18N 40°48' E 028°56'1 0.7
2017-Oct-17 03:12N 40°49' E 028°56'0 1.2
2017-Oct-17 03:00N 40°49' E 028°56'20911.0
2017-Oct-16 07:59N 38°49' E 025°13'51211.3
2017-Oct-14 10:46N 36°35' E 014°49'413.7
2017-Oct-14 10:26N 36°35' E 014°43'713.6
2017-Oct-14 09:57N 36°36' E 014°35'613.8
2017-Oct-14 09:30N 36°38' E 014°28'714.3
2017-Oct-14 09:00N 36°40' E 014°19'815.2
2017-Oct-14 08:30N 36°43' E 014°10'714.8
2017-Oct-14 08:00N 36°45' E 014°02'714.6
2017-Oct-14 07:30N 36°47' E 013°53'714.4
2017-Oct-14 07:00N 36°49' E 013°44'714.1
2017-Oct-14 06:30N 36°52' E 013°36'913.9
2017-Oct-14 05:52N 36°55' E 013°26'40513.4
2017-Oct-12 23:37N 37°11' E 004°59'2013.2
2017-Oct-12 22:06N 37°09' E 004°34'313.2
2017-Oct-12 21:54N 37°09' E 004°31'4813.4
2017-Oct-12 18:18N 36°58' E 003°32'1913.3
2017-Oct-12 16:54N 36°51' E 003°10'511.9
2017-Oct-12 16:28N 36°47' E 003°07'2 4.5
2017-Oct-12 16:00N 36°46' E 003°04'0 0.1
2017-Oct-12 13:11N 36°46' E 003°04'0 0.0
2017-Oct-12 12:56N 36°46' E 003°04'  
Track history (hours):
 
Tides and Currents Weather Stations Pressure Air Temp Water Temp Dewpoint Dewpoint Depression Visibility Wind Speed Wind Dir Waves Ship Positions

Kotor

Last reported at 2017-Oct-17 06:01 UTC. Time now 2017-Oct-17 08:16 UTC.
Position N 40°49' E 028°58'.

Length 180 m; draft 6.4 m.

Type: Cargo ship. MMSI: 375074000.

Date/timePositionNaut miles runAvg speedWind from/ knotsBaromVisibWave heightAir tempDewpointWater temp
2017-Oct-17 06:01N 40°49' E 028°58'0 0.0
2017-Oct-17 06:00N 40°49' E 028°58'0 0.4
2017-Oct-17 05:29N 40°50' E 028°58'2 3.2
2017-Oct-17 04:58N 40°48' E 028°57'1 1.1
2017-Oct-17 04:18N 40°48' E 028°56'1 0.7
2017-Oct-17 03:12N 40°49' E 028°56'0 1.2
2017-Oct-17 03:00N 40°49' E 028°56'20911.0
2017-Oct-16 07:59N 38°49' E 025°13'51211.3
2017-Oct-14 10:46N 36°35' E 014°49'413.7
2017-Oct-14 10:26N 36°35' E 014°43'713.6
2017-Oct-14 09:57N 36°36' E 014°35'613.8
2017-Oct-14 09:30N 36°38' E 014°28'714.3
2017-Oct-14 09:00N 36°40' E 014°19'815.2
2017-Oct-14 08:30N 36°43' E 014°10'714.8
2017-Oct-14 08:00N 36°45' E 014°02'714.6
2017-Oct-14 07:30N 36°47' E 013°53'714.4
2017-Oct-14 07:00N 36°49' E 013°44'714.1
2017-Oct-14 06:30N 36°52' E 013°36'913.9
2017-Oct-14 05:52N 36°55' E 013°26'40513.4
2017-Oct-12 23:37N 37°11' E 004°59'2013.2
2017-Oct-12 22:06N 37°09' E 004°34'313.2
2017-Oct-12 21:54N 37°09' E 004°31'4813.4
2017-Oct-12 18:18N 36°58' E 003°32'1913.3
2017-Oct-12 16:54N 36°51' E 003°10'511.9
2017-Oct-12 16:28N 36°47' E 003°07'2 4.5
2017-Oct-12 16:00N 36°46' E 003°04'0 0.1
2017-Oct-12 13:11N 36°46' E 003°04'0 0.0
2017-Oct-12 12:56N 36°46' E 003°04'  

Dump ship's entire track history